Speedwell, Tennessee
Current Conditions -  °F | °C
As of 9:35 PM on Thursday 20 Nov 2014 (Local Time) from K1A6 Reporting Station
Clear Clear  
Wind Chill: 28°   Ceiling: Unl
Heat Index: 28°   Visibility: 7mi
Dew Point: 24°   Wind: 0mph
Humidity: 83%   Direction: NA
Pressure: 30.23"   Gusts: NA
Location:  36.46°N, 83.87°W
Report Text: K1A6 210235Z AUTO 00000KT 7SM CLR M02/M05 A3023 RMK AO2 T10211046
Loading
Personal Weather Stations






























Interactive Weather Map New forecast layout! Learn more

10-Day Weather Forecast

Advertisements
Track Severe Weather on mobile